Time;durP1;ratioP1;P1;durP2;ratioP2;P2;SDS_P1;SDS_P2;PMS_P1;PMS_P2;Temp;Humidity;BMP_temperature;BMP_pressure;BME280_temperature;BME280_humidity;BME280_pressure;Samples;Min_cycle;Max_cycle;Signal;HPM_P1;HPM_P2
2022/06/30 00:00:22;;;;;;;53.80;49.40;;;;;;;18.61;100.00;100873.63;6129115;23;20026;-85
2022/06/30 00:02:49;;;;;;;58.90;54.60;;;;;;;18.46;100.00;100878.88;6129037;23;20018;-86
2022/06/30 00:05:16;;;;;;;61.58;56.72;;;;;;;18.61;100.00;100884.41;6129641;23;20018;-86
2022/06/30 00:07:43;;;;;;;49.80;45.60;;;;;;;18.51;100.00;100879.72;6129309;23;20029;-85
2022/06/30 00:10:11;;;;;;;50.45;46.22;;;;;;;18.42;100.00;100880.44;6129621;23;20030;-87
2022/06/30 00:12:38;;;;;;;50.00;45.70;;;;;;;18.58;100.00;100876.84;6129186;23;20092;-86
2022/06/30 00:15:06;;;;;;;50.97;46.85;;;;;;;18.73;100.00;100876.19;6129923;23;20026;-86
2022/06/30 00:17:34;;;;;;;51.67;47.53;;;;;;;18.60;100.00;100887.31;6130253;23;20022;-85
2022/06/30 00:20:03;;;;;;;50.53;46.40;;;;;;;18.44;100.00;100879.13;6129099;23;20018;-87
2022/06/30 00:22:36;;;;;;;44.17;39.85;;;;;;;18.74;100.00;100889.38;6128618;23;20025;-84
2022/06/30 00:25:17;;;;;;;48.30;44.22;;;;;;;17.99;100.00;100880.25;6130076;23;20022;-85
2022/06/30 00:27:47;;;;;;;49.45;44.67;;;;;;;18.47;100.00;100883.19;6130239;23;20030;-85
2022/06/30 00:30:14;;;;;;;48.03;43.72;;;;;;;18.02;100.00;100873.56;6129722;23;20093;-84
2022/06/30 00:32:51;;;;;;;47.13;43.13;;;;;;;18.41;100.00;100879.63;6130382;23;20081;-84
2022/06/30 00:35:20;;;;;;;49.58;45.10;;;;;;;18.41;100.00;100876.94;6130076;23;20457;-84
2022/06/30 00:37:47;;;;;;;54.45;49.55;;;;;;;18.46;100.00;100877.00;6130423;23;20033;-84
2022/06/30 00:40:26;;;;;;;50.80;46.00;;;;;;;18.38;100.00;100877.44;6129436;23;20725;-85
2022/06/30 00:43:09;;;;;;;47.05;42.65;;;;;;;18.13;100.00;100883.38;6129590;23;20037;-86
2022/06/30 00:45:40;;;;;;;49.67;45.47;;;;;;;17.48;100.00;100884.94;6129849;23;20088;-84
2022/06/30 00:48:15;;;;;;;55.07;50.40;;;;;;;18.12;100.00;100870.16;6130021;23;20045;-85
2022/06/30 00:51:00;;;;;;;57.03;52.30;;;;;;;17.49;100.00;100883.06;6129628;23;20021;-86
2022/06/30 00:53:51;;;;;;;59.20;53.72;;;;;;;18.04;100.00;100879.50;6130251;23;20022;-85
2022/06/30 00:56:27;;;;;;;50.75;46.45;;;;;;;17.92;100.00;100878.81;6130241;23;20032;-87
2022/06/30 00:59:03;;;;;;;53.25;48.55;;;;;;;18.25;100.00;100877.84;6129171;23;20427;-86
2022/06/30 01:01:33;;;;;;;54.33;49.80;;;;;;;18.07;100.00;100873.63;6128529;23;20022;-86
2022/06/30 01:04:13;;;;;;;52.65;47.38;;;;;;;17.53;100.00;100876.16;6127364;23;20018;-88
2022/06/30 01:06:54;;;;;;;51.08;46.75;;;;;;;18.17;100.00;100875.59;6129788;23;20335;-84
2022/06/30 01:14:55;;;;;;;;;;;;;;;17.74;100.00;100874.53;6077322;23;20112;-85
2022/06/30 01:17:23;;;;;;;54.45;49.78;;;;;;;17.45;100.00;100888.13;6130352;23;19925;-84
2022/06/30 01:20:04;;;;;;;61.05;56.05;;;;;;;17.81;100.00;100889.44;6130433;23;20423;-86
2022/06/30 01:22:34;;;;;;;57.75;52.58;;;;;;;18.15;100.00;100881.22;6130099;23;20026;-85
2022/06/30 01:25:02;;;;;;;55.08;49.53;;;;;;;17.81;100.00;100888.63;6129103;23;20017;-85
2022/06/30 01:27:29;;;;;;;52.53;47.67;;;;;;;17.96;100.00;100886.13;6129603;23;20026;-86
2022/06/30 01:30:04;;;;;;;47.72;43.58;;;;;;;18.05;100.00;100892.69;6129724;23;20018;-85
2022/06/30 01:32:36;;;;;;;49.40;44.90;;;;;;;17.90;100.00;100889.81;6129295;23;20029;-86
2022/06/30 01:35:05;;;;;;;50.90;46.40;;;;;;;17.85;100.00;100885.19;6129780;23;20021;-86
2022/06/30 01:37:47;;;;;;;57.83;52.70;;;;;;;17.97;100.00;100878.88;6129507;23;20025;-86
2022/06/30 01:40:15;;;;;;;57.25;51.97;;;;;;;17.81;100.00;100889.44;6129547;23;20029;-85
2022/06/30 01:42:49;;;;;;;57.35;52.42;;;;;;;17.60;100.00;100895.56;6129331;23;20022;-85
2022/06/30 01:45:34;;;;;;;62.17;56.97;;;;;;;17.70;100.00;100889.53;6128917;23;20052;-85
2022/06/30 01:48:05;;;;;;;65.30;59.72;;;;;;;17.46;100.00;100883.56;6127365;23;20034;-88
2022/06/30 01:50:34;;;;;;;57.63;52.63;;;;;;;17.63;100.00;100885.13;6127520;23;20018;-85
2022/06/30 01:53:04;;;;;;;57.13;52.33;;;;;;;17.40;100.00;100882.69;6127277;23;20435;-84
2022/06/30 01:55:32;;;;;;;54.35;49.75;;;;;;;17.46;100.00;100880.88;6127444;23;20033;-85
2022/06/30 01:58:07;;;;;;;46.78;42.35;;;;;;;17.10;100.00;100886.56;6127833;23;20030;-88
2022/06/30 02:00:34;;;;;;;49.75;45.55;;;;;;;17.02;100.00;100883.47;6109663;23;21077;-84
2022/06/30 02:03:01;;;;;;;48.15;43.95;;;;;;;17.10;100.00;100883.88;6123268;23;20026;-85
2022/06/30 02:05:28;;;;;;;51.35;46.78;;;;;;;17.05;100.00;100877.59;6124087;23;20026;-84
2022/06/30 02:07:57;;;;;;;54.53;49.60;;;;;;;17.27;100.00;100885.72;6126747;23;20030;-84
2022/06/30 02:10:27;;;;;;;58.42;53.75;;;;;;;17.05;100.00;100881.09;6126319;23;20033;-85
2022/06/30 02:13:06;;;;;;;59.30;54.40;;;;;;;17.30;100.00;100871.78;6127772;23;20022;-88
2022/06/30 02:15:34;;;;;;;57.42;52.33;;;;;;;17.20;100.00;100880.50;6127775;23;20072;-85
2022/06/30 02:18:11;;;;;;;58.63;53.40;;;;;;;16.98;100.00;100879.66;6127489;23;20451;-87
2022/06/30 02:21:00;;;;;;;66.28;60.97;;;;;;;17.24;100.00;100881.63;6127563;23;20026;-87
2022/06/30 02:23:34;;;;;;;61.95;56.75;;;;;;;17.45;100.00;100882.75;6127475;23;20022;-84
2022/06/30 02:26:07;;;;;;;64.13;58.67;;;;;;;17.55;100.00;100882.91;6126687;23;20022;-87
2022/06/30 02:28:41;;;;;;;74.93;68.80;;;;;;;17.55;100.00;100874.00;6127739;23;20159;-86
2022/06/30 02:31:12;;;;;;;80.10;73.72;;;;;;;17.55;100.00;100882.06;6127093;23;20037;-86
2022/06/30 02:33:47;;;;;;;82.05;75.75;;;;;;;17.40;100.00;100880.00;6127056;23;20022;-86
2022/06/30 02:36:14;;;;;;;70.82;65.40;;;;;;;17.41;100.00;100881.63;6123358;23;20025;-86
2022/06/30 02:39:14;;;;;;;;;;;;;;;;;;;;;
2022/06/30 02:42:11;;;;;;;66.88;61.67;;;;;;;17.53;100.00;100881.53;6125589;23;20489;-86
2022/06/30 02:45:19;;;;;;;54.70;50.28;;;;;;;16.86;100.00;100877.03;6126245;23;20029;-86
2022/06/30 02:48:23;;;;;;;;;;;;;;;;;;;;;
2022/06/30 02:54:19;;;;;;;56.58;51.80;;;;;;;17.00;100.00;100890.94;5865626;24;20037;-88
2022/06/30 02:57:31;;;;;;;;;;;;;;;;;;;;;
2022/06/30 03:00:44;;;;;;;58.10;53.60;;;;;;;17.38;100.00;100888.28;5864263;24;20092;-88
2022/06/30 03:07:00;;;;;;;;;;;;;;;;;;;;;
2022/06/30 03:37:49;;;;;;;49.88;46.05;;;;;;;18.80;100.00;100874.09;5899513;24;20036;-85
2022/06/30 03:47:19;;;;;;;51.80;47.90;;;;;;;18.91;100.00;100881.19;5864845;24;20023;-86
2022/06/30 03:50:05;;;;;;;53.10;49.17;;;;;;;18.94;100.00;100888.75;5923622;24;20060;-87
2022/06/30 04:02:17;;;;;;;59.00;54.60;;;;;;;19.20;100.00;100886.22;5899131;24;20022;-85
2022/06/30 04:08:48;;;;;;;47.00;43.25;;;;;;;19.32;100.00;100900.31;5832921;24;20350;-85
2022/06/30 04:11:33;;;;;;;;;;;;;;;;;;;;;
2022/06/30 04:17:36;;;;;;;50.53;46.83;;;;;;;19.45;100.00;100901.72;5917560;23;20109;-86
2022/06/30 04:20:49;;;;;;;41.80;38.60;;;;;;;19.84;100.00;100898.72;6127018;23;20018;-85
2022/06/30 04:23:55;;;;;;;44.13;40.92;;;;;;;19.91;100.00;100907.41;5899046;24;20032;-85
2022/06/30 04:26:44;;;;;;;;;;;;;;;;;;;;;
2022/06/30 04:47:21;;;;;;;;;;;;;;;;;;;;;
2022/06/30 04:53:11;;;;;;;37.38;34.47;;;;;;;21.15;100.00;100895.72;5965160;23;20101;-86
2022/06/30 04:56:06;;;;;;;35.85;33.35;;;;;;;21.24;100.00;100902.16;6066510;23;20436;-86
2022/06/30 04:58:39;;;;;;;33.72;31.35;;;;;;;21.43;100.00;100902.47;6067350;23;20022;-85
2022/06/30 05:08:16;;;;;;;37.17;34.80;;;;;;;21.82;100.00;100891.00;5775110;24;20050;-85
2022/06/30 05:13:40;;;;;;;34.33;31.75;;;;;;;22.13;100.00;100899.75;5816327;24;20030;-85
2022/06/30 05:39:32;;;;;;;;;;;;;;;;;;;;;
2022/06/30 05:49:37;;;;;;;30.85;28.40;;;;;;;23.94;100.00;100910.41;5715637;25;20474;-88
2022/06/30 06:11:42;;;;;;;33.53;31.00;;;;;;;25.68;100.00;100929.38;5843785;24;20034;-84
2022/06/30 06:18:01;;;;;;;34.83;32.13;;;;;;;25.81;100.00;100925.91;5820270;24;20091;-85
2022/06/30 06:21:02;;;;;;;38.30;35.40;;;;;;;26.37;100.00;100926.59;5873701;24;20026;-86
2022/06/30 06:27:11;;;;;;;33.03;30.73;;;;;;;26.73;100.00;100920.34;5954206;24;20470;-83
2022/06/30 06:30:31;;;;;;;;;;;;;;;;;;;;;
2022/06/30 06:33:13;;;;;;;31.20;28.73;;;;;;;26.70;100.00;100924.50;6008838;23;20093;-83
2022/06/30 06:36:28;;;;;;;;;;;;;;;;;;;;;
2022/06/30 06:39:54;;;;;;;31.17;29.25;;;;;;;26.91;100.00;100924.81;6131875;23;20281;-84
2022/06/30 06:43:03;;;;;;;;;;;;;;;;;;;;;
2022/06/30 06:55:46;;;;;;;32.20;29.20;;;;;;;28.14;100.00;100916.03;6038111;23;20087;-85
2022/06/30 06:58:25;;;;;;;36.58;33.22;;;;;;;28.42;100.00;100921.22;6096116;23;20028;-86
2022/06/30 07:00:53;;;;;;;33.72;30.73;;;;;;;28.36;100.00;100917.00;6127552;23;21763;-85
2022/06/30 07:03:20;;;;;;;35.17;31.55;;;;;;;28.36;100.00;100922.47;6127475;23;20021;-88
2022/06/30 07:06:17;;;;;;;;;;;;;;;;;;;;;
2022/06/30 07:08:44;;;;;;;33.30;30.13;;;;;;;28.39;100.00;100921.84;6128025;23;20522;-87
2022/06/30 07:11:12;;;;;;;32.05;29.30;;;;;;;28.14;100.00;100920.66;6127646;23;20084;-87
2022/06/30 07:13:39;;;;;;;34.08;30.60;;;;;;;28.08;100.00;100917.31;6128504;23;20447;-87
2022/06/30 07:19:47;;;;;;;32.17;29.83;;;;;;;27.95;100.00;100916.31;6039442;23;20041;-87
2022/06/30 07:26:38;;;;;;;28.83;27.02;;;;;;;28.43;96.84;100907.22;5994783;23;20031;-86
2022/06/30 07:29:26;;;;;;;29.45;27.35;;;;;;;28.60;100.00;100902.91;6011021;23;20052;-87
2022/06/30 07:31:55;;;;;;;28.58;26.40;;;;;;;28.71;100.00;100915.88;6093011;23;20018;-85
2022/06/30 07:34:25;;;;;;;29.85;27.67;;;;;;;28.67;100.00;100898.53;6128167;23;20053;-85
2022/06/30 07:37:03;;;;;;;29.42;27.30;;;;;;;28.42;100.00;100910.28;6127828;23;20064;-86
2022/06/30 07:39:32;;;;;;;28.23;26.05;;;;;;;28.87;100.00;100899.00;6127967;23;20439;-85
2022/06/30 07:42:05;;;;;;;29.90;27.65;;;;;;;28.98;100.00;100903.75;6127823;23;20022;-85
2022/06/30 07:44:35;;;;;;;31.40;28.98;;;;;;;29.10;100.00;100902.31;6127948;23;20022;-85
2022/06/30 07:47:14;;;;;;;30.52;28.10;;;;;;;29.31;96.81;100902.41;6128059;23;20034;-83
2022/06/30 07:49:41;;;;;;;30.98;28.73;;;;;;;29.45;93.89;100908.47;6127080;23;20037;-83
2022/06/30 07:52:08;;;;;;;30.02;27.67;;;;;;;29.42;91.31;100904.44;6127289;23;20034;-83
2022/06/30 07:54:35;;;;;;;29.55;27.33;;;;;;;29.33;98.34;100905.63;6127551;23;20022;-82
2022/06/30 07:57:05;;;;;;;29.55;27.10;;;;;;;29.48;100.00;100904.28;6128048;23;20036;-84
2022/06/30 07:59:32;;;;;;;29.77;27.23;;;;;;;29.76;93.44;100907.38;6128143;23;20423;-85
2022/06/30 08:02:00;;;;;;;30.05;27.85;;;;;;;29.56;99.27;100898.78;6126970;23;20101;-85
2022/06/30 08:04:29;;;;;;;30.90;28.80;;;;;;;29.99;90.40;100902.41;6127232;23;20028;-84
2022/06/30 08:07:01;;;;;;;30.17;28.13;;;;;;;30.13;89.95;100905.66;6127217;23;20044;-84
2022/06/30 08:09:28;;;;;;;33.63;31.30;;;;;;;29.59;100.00;100902.75;6127913;23;20040;-83
2022/06/30 08:11:56;;;;;;;32.25;30.35;;;;;;;29.63;100.00;100896.34;6127599;23;20427;-85
2022/06/30 08:14:26;;;;;;;31.67;29.58;;;;;;;30.73;77.73;100895.34;6129068;23;20032;-82
2022/06/30 08:16:54;;;;;;;32.10;30.17;;;;;;;30.24;88.64;100892.41;6128261;23;20033;-83
2022/06/30 08:19:22;;;;;;;32.40;30.40;;;;;;;31.29;68.93;100884.75;6127975;23;20327;-83
2022/06/30 08:21:49;;;;;;;32.95;30.23;;;;;;;31.43;57.86;100895.41;6128670;23;20025;-83
2022/06/30 08:24:19;;;;;;;32.50;30.05;;;;;;;30.44;85.20;100896.25;6127937;23;20018;-83
2022/06/30 08:26:48;;;;;;;32.40;30.30;;;;;;;31.19;53.80;100902.44;6127959;23;20040;-85
2022/06/30 08:29:17;;;;;;;37.10;34.83;;;;;;;30.82;72.37;100898.03;6127255;23;20057;-83
2022/06/30 08:31:45;;;;;;;32.33;30.33;;;;;;;31.59;54.99;100892.75;6127622;23;20490;-82
2022/06/30 08:34:17;;;;;;;30.67;28.88;;;;;;;31.08;70.25;100884.84;6127109;23;20029;-83
2022/06/30 08:36:45;;;;;;;32.45;30.23;;;;;;;31.33;62.59;100874.69;6126350;23;20026;-84
2022/06/30 08:42:04;;;;;;;35.03;32.83;;;;;;;31.92;47.07;100871.50;6126843;23;20018;-86
2022/06/30 08:44:34;;;;;;;33.65;31.10;;;;;;;31.77;48.12;100866.66;6126784;23;20036;-88
2022/06/30 08:47:04;;;;;;;31.02;29.13;;;;;;;32.11;46.21;100870.06;6127015;23;20439;-87
2022/06/30 08:49:32;;;;;;;31.23;28.92;;;;;;;32.26;47.18;100874.81;6126943;23;20172;-83
2022/06/30 08:52:01;;;;;;;30.33;28.42;;;;;;;32.11;44.03;100872.81;6127174;23;20097;-83
2022/06/30 08:54:30;;;;;;;31.83;29.40;;;;;;;32.43;45.58;100875.66;6126248;23;20025;-84
2022/06/30 08:59:48;;;;;;;32.35;30.05;;;;;;;32.28;46.04;100872.50;6125163;23;20029;-83
2022/06/30 09:02:30;;;;;;;35.05;32.65;;;;;;;32.26;44.54;100865.78;6126769;23;20026;-85
2022/06/30 09:04:58;;;;;;;33.08;30.50;;;;;;;31.98;50.45;100871.22;6126579;23;20398;-87
2022/06/30 09:07:27;;;;;;;30.95;29.02;;;;;;;32.28;44.91;100879.94;6127418;23;20080;-83
2022/06/30 09:10:00;;;;;;;30.05;28.05;;;;;;;32.47;44.02;100874.66;6127574;23;20452;-83
2022/06/30 09:12:44;;;;;;;33.00;30.80;;;;;;;32.19;45.18;100877.34;6127910;23;20030;-83
2022/06/30 09:15:42;;;;;;;39.42;36.60;;;;;;;32.16;42.33;100867.06;6129825;23;20443;-87
2022/06/30 09:18:31;;;;;;;41.28;38.78;;;;;;;32.35;45.05;100861.72;6126714;23;20022;-81
2022/06/30 09:21:15;;;;;;;38.20;35.33;;;;;;;32.49;36.48;100855.84;6128918;23;20221;-83
2022/06/30 09:23:50;;;;;;;35.20;33.00;;;;;;;32.84;42.11;100863.44;6128350;23;20018;-83
2022/06/30 09:26:24;;;;;;;38.00;35.80;;;;;;;32.94;38.76;100859.38;6127586;23;20074;-83
2022/06/30 09:29:14;;;;;;;32.05;29.95;;;;;;;33.10;39.56;100856.63;6127808;23;20026;-87
2022/06/30 09:31:43;;;;;;;32.10;29.73;;;;;;;32.97;38.03;100847.66;6128629;23;20026;-84
2022/06/30 09:34:28;;;;;;;34.65;32.65;;;;;;;32.64;38.24;100857.03;6128886;23;20026;-84
2022/06/30 09:37:24;;;;;;;30.67;28.48;;;;;;;32.67;37.78;100859.06;6130452;23;20447;-83
2022/06/30 09:39:57;;;;;;;33.08;30.85;;;;;;;32.67;40.93;100861.03;6127626;23;20339;-85
2022/06/30 09:42:49;;;;;;;35.05;32.92;;;;;;;32.85;38.97;100848.53;6129626;23;20052;-86
2022/06/30 09:45:39;;;;;;;40.92;38.25;;;;;;;32.37;45.10;100844.88;6127783;23;20527;-82
2022/06/30 09:48:26;;;;;;;32.25;30.30;;;;;;;31.11;72.84;100850.47;6130818;23;20018;-84
2022/06/30 09:51:05;;;;;;;31.65;29.67;;;;;;;30.90;57.12;100847.81;6127593;23;20456;-82
2022/06/30 09:54:09;;;;;;;32.33;30.10;;;;;;;31.21;60.68;100847.25;6130953;23;20033;-85
2022/06/30 09:56:39;;;;;;;32.63;30.63;;;;;;;31.99;51.48;100839.91;6110647;23;20057;-84
2022/06/30 09:59:08;;;;;;;33.88;31.85;;;;;;;33.03;43.10;100838.00;6128252;23;20340;-83
2022/06/30 10:01:54;;;;;;;34.15;32.05;;;;;;;33.04;38.99;100840.41;6128084;23;20033;-82
2022/06/30 10:04:59;;;;;;;34.17;31.80;;;;;;;31.87;52.69;100836.00;6127808;23;20017;-83
2022/06/30 10:10:31;;;;;;;;;;;;;;;;;;;;;
2022/06/30 10:13:05;;;;;;;34.65;32.38;;;;;;;30.65;59.38;100830.44;6128218;23;20029;-84
2022/06/30 10:15:40;;;;;;;35.92;33.25;;;;;;;29.98;85.76;100833.13;6126348;23;20022;-83
2022/06/30 10:18:21;;;;;;;32.95;30.95;;;;;;;33.19;43.57;100822.28;6127724;23;20018;-83
2022/06/30 10:20:52;;;;;;;38.47;35.97;;;;;;;33.66;42.48;100828.88;6129348;23;20026;-84
2022/06/30 10:23:28;;;;;;;38.60;35.88;;;;;;;32.96;51.33;100824.84;6127017;23;20544;-82
2022/06/30 10:25:56;;;;;;;37.65;35.00;;;;;;;33.54;38.62;100826.25;6127565;23;20085;-83
2022/06/30 10:28:32;;;;;;;36.15;33.60;;;;;;;33.27;40.63;100817.75;6127972;23;20033;-83
2022/06/30 10:34:10;;;;;;;36.42;34.22;;;;;;;32.74;44.48;100822.69;6126345;23;20088;-83
2022/06/30 10:36:52;;;;;;;31.45;29.00;;;;;;;33.56;38.49;100821.16;6128282;23;20036;-82
2022/06/30 10:39:32;;;;;;;;;;;;;;;33.78;42.67;100817.75;6124760;23;20370;-82
2022/06/30 10:42:06;;;;;;;33.17;30.38;;;;;;;32.87;52.29;100824.22;6122246;23;19917;-83
2022/06/30 10:44:53;;;;;;;30.08;28.02;;;;;;;32.79;43.80;100804.00;6126596;23;20037;-81
2022/06/30 10:47:31;;;;;;;29.27;27.48;;;;;;;32.93;49.40;100813.78;6126066;23;20021;-86
2022/06/30 10:49:59;;;;;;;33.13;30.95;;;;;;;31.98;52.62;100805.31;6125250;23;20089;-83
2022/06/30 10:52:46;;;;;;;33.50;31.10;;;;;;;33.28;44.10;100795.41;6125360;23;20440;-84
2022/06/30 10:55:14;;;;;;;31.20;28.95;;;;;;;33.46;42.84;100789.47;6125880;23;20057;-87
2022/06/30 10:58:19;;;;;;;;;;;;;;;;;;;;;
2022/06/30 11:01:04;;;;;;;33.33;31.05;;;;;;;34.23;39.22;100788.75;6118779;23;20077;-83
2022/06/30 11:04:04;;;;;;;31.42;29.27;;;;;;;34.07;37.21;100790.78;6124418;23;20014;-84
2022/06/30 11:07:09;;;;;;;33.63;31.20;;;;;;;34.32;37.74;100789.31;6125959;23;20081;-84
2022/06/30 11:10:25;;;;;;;31.45;29.15;;;;;;;34.41;37.91;100781.59;6126606;23;20022;-84
2022/06/30 11:13:15;;;;;;;38.35;35.67;;;;;;;33.41;43.63;100787.81;6128091;23;20022;-84
2022/06/30 11:15:57;;;;;;;38.75;36.05;;;;;;;34.03;37.33;100776.16;6130694;23;20343;-83
2022/06/30 11:18:43;;;;;;;;;;;;;;;34.34;43.50;100775.94;6127885;23;20026;-84
2022/06/30 11:21:12;;;;;;;34.95;32.65;;;;;;;32.70;54.43;100772.34;6128828;23;19939;-84
2022/06/30 11:23:47;;;;;;;36.97;34.58;;;;;;;33.03;45.22;100772.00;6128942;23;20033;-85
2022/06/30 11:38:14;;;;;;;38.53;35.95;;;;;;;34.27;36.61;100777.78;6126554;23;20022;-85
2022/06/30 11:43:56;;;;;;;35.83;33.67;;;;;;;33.83;37.36;100748.59;6127995;23;20037;-83
2022/06/30 11:46:53;;;;;;;41.20;38.80;;;;;;;34.10;36.43;100745.97;6127117;23;20029;-82
2022/06/30 11:49:46;;;;;;;43.03;40.30;;;;;;;32.75;45.14;100747.34;6126344;23;20021;-85
2022/06/30 11:52:22;;;;;;;40.47;37.67;;;;;;;34.73;35.84;100737.25;6111938;23;20022;-82
2022/06/30 11:54:58;;;;;;;42.08;39.65;;;;;;;35.25;33.76;100741.22;6127018;23;20025;-84
2022/06/30 11:57:42;;;;;;;38.83;36.42;;;;;;;34.77;34.29;100740.06;6131151;23;20359;-86
2022/06/30 12:00:33;;;;;;;45.28;42.60;;;;;;;34.62;34.63;100739.06;6128317;23;20041;-87
2022/06/30 12:03:20;;;;;;;37.30;34.90;;;;;;;34.54;38.01;100735.38;6136055;23;20368;-83
2022/06/30 12:05:49;;;;;;;38.15;35.65;;;;;;;32.90;43.58;100731.97;6127359;23;20030;-85
2022/06/30 12:09:03;;;;;;;42.42;39.80;;;;;;;33.69;39.27;100732.56;6128712;23;20114;-84
2022/06/30 12:11:32;;;;;;;48.42;45.53;;;;;;;34.66;36.34;100737.16;5977483;24;20040;-82
2022/06/30 12:14:02;;;;;;;48.17;44.88;;;;;;;34.83;35.90;100735.84;5984289;24;20020;-81
2022/06/30 12:16:41;;;;;;;49.38;46.28;;;;;;;34.96;34.44;100725.38;5983599;24;20100;-84
2022/06/30 12:19:19;;;;;;;47.05;44.35;;;;;;;34.50;34.75;100723.47;6114183;23;20037;-83
2022/06/30 12:22:02;;;;;;;48.25;45.55;;;;;;;34.65;33.77;100725.31;6134003;23;20076;-85
2022/06/30 12:24:45;;;;;;;47.92;44.72;;;;;;;34.72;33.73;100719.13;6132114;23;20029;-84
2022/06/30 12:27:39;;;;;;;49.00;46.28;;;;;;;35.31;33.16;100725.91;6130052;23;20069;-85
2022/06/30 12:30:09;;;;;;;51.08;47.53;;;;;;;35.00;34.43;100715.19;6127056;23;20065;-86
2022/06/30 12:32:55;;;;;;;50.10;47.30;;;;;;;34.86;33.38;100713.81;6129365;23;20018;-83
2022/06/30 12:35:33;;;;;;;57.50;53.83;;;;;;;34.56;34.54;100713.75;6131483;23;20068;-83
2022/06/30 12:38:11;;;;;;;51.08;48.35;;;;;;;34.55;36.30;100703.88;6134312;23;20466;-84
2022/06/30 12:40:45;;;;;;;56.03;53.10;;;;;;;33.90;37.33;100704.66;6128533;23;20018;-86
2022/06/30 12:43:18;;;;;;;49.88;46.97;;;;;;;34.14;36.75;100697.25;6128777;23;20022;-87
2022/06/30 12:45:53;;;;;;;46.20;43.25;;;;;;;34.95;35.76;100699.78;6127874;23;20033;-84
2022/06/30 12:48:50;;;;;;;;;;;;;;;;;;;;;
2022/06/30 12:51:46;;;;;;;56.95;53.75;;;;;;;34.52;38.67;100701.03;6127103;23;20096;-88
2022/06/30 12:54:26;;;;;;;40.35;37.70;;;;;;;34.50;39.96;100703.38;6128451;23;20109;-86
2022/06/30 12:57:06;;;;;;;45.75;43.17;;;;;;;34.60;34.28;100694.50;6128206;23;20018;-83
2022/06/30 12:59:48;;;;;;;46.75;43.63;;;;;;;33.82;42.47;100693.88;6128509;23;20026;-83
2022/06/30 13:02:39;;;;;;;44.65;42.25;;;;;;;35.06;34.70;100697.97;6127452;23;20040;-84
2022/06/30 13:05:19;;;;;;;43.13;40.45;;;;;;;35.28;32.78;100692.72;6127256;23;20385;-84
2022/06/30 13:07:54;;;;;;;42.88;40.42;;;;;;;35.39;32.93;100692.88;6126550;23;20022;-83
2022/06/30 13:11:04;;;;;;;42.03;39.47;;;;;;;34.84;37.59;100696.06;6127665;23;20018;-85
2022/06/30 13:13:13;;;;;;;42.97;40.47;;;;;;;34.21;38.47;100694.63;6127236;23;20104;-85
2022/06/30 13:15:49;;;;;;;44.97;42.45;;;;;;;34.48;36.83;100695.47;6127347;23;20018;-86
2022/06/30 13:18:20;;;;;;;43.47;40.90;;;;;;;35.62;33.68;100679.78;6127252;23;20339;-84
2022/06/30 13:20:47;;;;;;;42.60;39.85;;;;;;;34.94;38.60;100689.09;6126259;23;20014;-84
2022/06/30 13:23:24;;;;;;;43.80;41.13;;;;;;;33.70;46.48;100694.81;6126727;23;20032;-85
2022/06/30 13:25:57;;;;;;;47.25;44.50;;;;;;;34.79;37.69;100672.31;6127663;23;20022;-85
2022/06/30 13:28:31;;;;;;;38.40;36.00;;;;;;;35.58;36.74;100675.38;6127502;23;20073;-83
2022/06/30 13:31:01;;;;;;;36.00;33.55;;;;;;;35.76;33.18;100679.13;6126735;23;20458;-85
2022/06/30 13:33:34;;;;;;;36.38;34.00;;;;;;;35.86;35.74;100691.44;6127454;23;20018;-86
2022/06/30 13:36:08;;;;;;;32.25;30.15;;;;;;;35.13;35.56;100685.44;6126592;23;20092;-84
2022/06/30 13:38:40;;;;;;;40.47;37.88;;;;;;;34.55;36.74;100689.28;6127493;23;20026;-86
2022/06/30 13:41:16;;;;;;;39.60;36.75;;;;;;;35.23;35.39;100687.56;6129440;23;20026;-85
2022/06/30 13:43:44;;;;;;;36.53;33.88;;;;;;;35.39;34.30;100684.59;6128177;23;20092;-85
2022/06/30 13:46:19;;;;;;;40.42;37.50;;;;;;;35.60;33.57;100684.09;6126695;23;20372;-82
2022/06/30 13:48:49;;;;;;;36.80;34.40;;;;;;;35.05;33.72;100685.34;6126161;23;20037;-84
2022/06/30 13:51:18;;;;;;;34.30;31.60;;;;;;;34.59;40.37;100679.91;6126427;23;20072;-83
2022/06/30 13:54:02;;;;;;;36.00;33.63;;;;;;;35.25;35.03;100677.72;6127071;23;20032;-84
2022/06/30 13:57:06;;;;;;;;;;;;;;;;;;;;;
2022/06/30 14:02:26;;;;;;;37.03;34.53;;;;;;;35.19;36.12;100684.75;6122428;23;20092;-84
2022/06/30 14:04:57;;;;;;;34.42;31.80;;;;;;;34.36;38.56;100685.41;6126943;23;20021;-84
2022/06/30 14:07:38;;;;;;;35.00;32.70;;;;;;;33.32;40.18;100677.13;6126828;23;20025;-85
2022/06/30 14:10:18;;;;;;;40.97;38.38;;;;;;;34.83;37.82;100666.88;6126241;23;20022;-84
2022/06/30 14:12:49;;;;;;;40.83;38.17;;;;;;;35.33;35.29;100675.84;6126544;23;20377;-82
2022/06/30 14:15:23;;;;;;;41.63;39.15;;;;;;;35.65;34.95;100681.78;6126441;23;20018;-85
2022/06/30 14:17:52;;;;;;;42.08;39.67;;;;;;;35.01;36.17;100669.88;6127427;23;20018;-84
2022/06/30 14:20:42;;;;;;;43.45;40.60;;;;;;;35.32;37.31;100671.50;6129122;23;20089;-87
2022/06/30 14:23:15;;;;;;;38.28;35.97;;;;;;;35.67;34.79;100675.88;6128295;23;20044;-86
2022/06/30 14:26:02;;;;;;;43.75;41.15;;;;;;;35.39;33.44;100668.81;6128788;23;20407;-85
2022/06/30 14:28:46;;;;;;;;;;;;;;;;;;;;;
2022/06/30 14:31:41;;;;;;;42.42;39.67;;;;;;;34.07;38.61;100664.03;6126597;23;20044;-83
2022/06/30 14:37:05;;;;;;;39.90;37.50;;;;;;;34.40;38.31;100663.41;6094335;23;20018;-84
2022/06/30 14:39:35;;;;;;;40.40;38.00;;;;;;;34.18;37.05;100665.81;6126305;23;20022;-85
2022/06/30 14:45:19;;;;;;;37.35;34.95;;;;;;;34.75;36.77;100662.44;6128545;23;20029;-84
2022/06/30 14:47:58;;;;;;;33.60;31.10;;;;;;;34.51;38.56;100664.41;6127461;23;20096;-85
2022/06/30 14:50:29;;;;;;;30.70;28.42;;;;;;;34.75;36.35;100660.47;6128935;23;20018;-85
2022/06/30 14:53:07;;;;;;;34.83;32.63;;;;;;;34.99;35.72;100656.47;6129225;23;20049;-85
2022/06/30 14:58:23;;;;;;;37.72;35.13;;;;;;;34.79;37.56;100664.06;6118530;23;20355;-83
2022/06/30 15:01:00;;;;;;;41.03;38.40;;;;;;;34.27;38.46;100665.59;6127320;23;20022;-83
2022/06/30 15:03:37;;;;;;;40.85;38.15;;;;;;;34.91;36.40;100663.03;6127855;23;20037;-83
2022/06/30 15:06:12;;;;;;;39.10;36.60;;;;;;;34.98;35.84;100662.34;6129774;23;20100;-85
2022/06/30 15:08:44;;;;;;;41.03;38.30;;;;;;;34.70;37.41;100651.69;6128621;23;20026;-87
2022/06/30 15:11:20;;;;;;;39.67;37.25;;;;;;;34.64;41.91;100653.97;6126762;23;20018;-86
2022/06/30 15:14:16;;;;;;;;;;;;;;;;;;;;;
2022/06/30 15:16:56;;;;;;;38.60;35.95;;;;;;;34.65;35.87;100652.84;6127670;23;20103;-84
2022/06/30 15:19:28;;;;;;;47.20;44.60;;;;;;;34.52;37.61;100652.19;6127976;23;20044;-86
2022/06/30 15:24:46;;;;;;;41.78;38.80;;;;;;;34.10;38.10;100653.13;6127720;23;20458;-85
2022/06/30 15:27:23;;;;;;;;;;;;;;;;;;;;;
2022/06/30 15:29:59;;;;;;;43.70;40.97;;;;;;;34.31;39.54;100652.66;6127869;23;20051;-83
2022/06/30 15:32:34;;;;;;;37.53;34.92;;;;;;;34.33;37.45;100649.53;6128171;23;20399;-85
2022/06/30 15:35:06;;;;;;;34.65;32.05;;;;;;;34.04;38.22;100648.25;6127866;23;20022;-85
2022/06/30 15:37:40;;;;;;;35.30;32.90;;;;;;;31.17;69.44;100652.41;6127991;23;20070;-85
2022/06/30 15:40:14;;;;;;;39.00;36.28;;;;;;;33.54;44.21;100658.31;6127632;23;20428;-84
2022/06/30 15:42:44;;;;;;;41.50;38.60;;;;;;;33.50;43.94;100658.22;6128326;23;20025;-84
2022/06/30 15:45:13;;;;;;;39.53;36.72;;;;;;;33.09;46.29;100649.50;6127968;23;20014;-86
2022/06/30 15:47:47;;;;;;;35.30;32.75;;;;;;;32.68;56.42;100654.50;6127391;23;20021;-83
2022/06/30 15:50:33;;;;;;;31.50;29.40;;;;;;;32.57;48.95;100648.72;6127533;23;20037;-84
2022/06/30 15:53:08;;;;;;;33.13;30.67;;;;;;;31.27;59.89;100662.06;6127040;23;20377;-85